Skip Navigation Links Skip Navigation Links

Current Weather

Carl R Keller Field, Port Clinton, Ohio

For information only: do not use for flight planning or navigation.
Latest weather
Observation time Sunday, May 31, 2020 8:55 AM EDT
Local time Sunday, May 31, 2020 9:03 AM EDT
Flight conditions Visual Meteorological Conditions
Winds
Wind direction North (360°)
Wind speed 8 mph
Wind gusting to 15 mph
Visibility 9 mi.
Sky condition
Ceiling 3,000 ft. broken clouds
Cloud layer few clouds 2,200 ft.
Cloud layer broken clouds 3,000 ft.
Temperature 52°F
Dewpoint 45°F
Altimeter 30.30 in.Hg
Derived measurements
Relative humidity 76%
Density altitude -176 ft.
Remarks
Fully automated report.
Automated weather observing station with precipitation discriminator.
METAR KPCW 311255Z AUTO 36007G13KT 9SM FEW022 BKN030 11/07 A3030 RMK AO2

Settings

Location code

InnerDrive.Weather 4.0.6770.0 Release CLR 4.0.30319.42000
Copyright ©2018 Inner Drive Technology. All rights reserved. Portions Copyright ©1986-2018 David Braverman.

Find weather

Site navigation


Skip Navigation Links

Place info

Page info

PayPal - The safer, easier way to pay online!

Return home.

Copyright ©2020 Inner Drive Technology. Purveyors of fine, hand-crafted computer software. Page printed 2020-05-31T13:03:11 UTC.